sensor_id;sensor_type;location;lat;lon;timestamp;P1;durP1;ratioP1;P2;durP2;ratioP2
40541;SDS011;49288;52.194;5.676;2023-02-28T00:03:25;9.65;;;3.70;;
40541;SDS011;49288;52.194;5.676;2023-02-28T00:08:28;15.15;;;4.47;;
40541;SDS011;49288;52.194;5.676;2023-02-28T00:13:31;8.85;;;3.95;;
40541;SDS011;49288;52.194;5.676;2023-02-28T00:18:36;10.27;;;4.55;;
40541;SDS011;49288;52.194;5.676;2023-02-28T00:23:39;16.20;;;5.15;;
40541;SDS011;49288;52.194;5.676;2023-02-28T00:28:42;10.38;;;4.75;;
40541;SDS011;49288;52.194;5.676;2023-02-28T00:33:45;11.02;;;4.90;;
40541;SDS011;49288;52.194;5.676;2023-02-28T00:38:49;22.93;;;5.13;;
40541;SDS011;49288;52.194;5.676;2023-02-28T00:43:52;9.48;;;4.22;;
40541;SDS011;49288;52.194;5.676;2023-02-28T00:48:55;15.07;;;4.93;;
40541;SDS011;49288;52.194;5.676;2023-02-28T00:53:59;12.70;;;4.72;;
40541;SDS011;49288;52.194;5.676;2023-02-28T00:59:03;11.85;;;5.32;;
40541;SDS011;49288;52.194;5.676;2023-02-28T01:04:05;18.75;;;4.82;;
40541;SDS011;49288;52.194;5.676;2023-02-28T01:09:10;19.80;;;5.40;;
40541;SDS011;49288;52.194;5.676;2023-02-28T01:14:17;12.70;;;4.82;;
40541;SDS011;49288;52.194;5.676;2023-02-28T01:19:20;18.98;;;5.90;;
40541;SDS011;49288;52.194;5.676;2023-02-28T01:24:23;17.75;;;6.40;;
40541;SDS011;49288;52.194;5.676;2023-02-28T01:29:26;13.23;;;6.40;;
40541;SDS011;49288;52.194;5.676;2023-02-28T01:34:28;16.25;;;6.75;;
40541;SDS011;49288;52.194;5.676;2023-02-28T01:39:31;22.00;;;6.28;;
40541;SDS011;49288;52.194;5.676;2023-02-28T01:50:00;14.75;;;6.72;;
40541;SDS011;49288;52.194;5.676;2023-02-28T01:55:06;11.82;;;6.28;;
40541;SDS011;49288;52.194;5.676;2023-02-28T02:00:14;13.23;;;6.78;;
40541;SDS011;49288;52.194;5.676;2023-02-28T02:05:23;20.05;;;7.80;;
40541;SDS011;49288;52.194;5.676;2023-02-28T02:10:39;17.83;;;7.40;;
40541;SDS011;49288;52.194;5.676;2023-02-28T02:47:44;16.25;;;7.60;;
40541;SDS011;49288;52.194;5.676;2023-02-28T02:52:48;14.80;;;7.00;;
40541;SDS011;49288;52.194;5.676;2023-02-28T02:57:59;15.07;;;6.85;;
40541;SDS011;49288;52.194;5.676;2023-02-28T03:03:06;15.60;;;7.50;;
40541;SDS011;49288;52.194;5.676;2023-02-28T03:08:10;16.50;;;7.75;;
40541;SDS011;49288;52.194;5.676;2023-02-28T03:13:27;20.30;;;8.30;;
40541;SDS011;49288;52.194;5.676;2023-02-28T03:18:57;18.50;;;8.60;;
40541;SDS011;49288;52.194;5.676;2023-02-28T03:29:28;19.33;;;8.40;;
40541;SDS011;49288;52.194;5.676;2023-02-28T03:34:37;19.13;;;9.18;;
40541;SDS011;49288;52.194;5.676;2023-02-28T03:39:44;20.20;;;9.68;;
40541;SDS011;49288;52.194;5.676;2023-02-28T03:45:00;18.77;;;8.43;;
40541;SDS011;49288;52.194;5.676;2023-02-28T03:55:41;22.27;;;10.23;;
40541;SDS011;49288;52.194;5.676;2023-02-28T04:00:56;28.58;;;10.30;;
40541;SDS011;49288;52.194;5.676;2023-02-28T04:06:29;23.92;;;11.73;;
40541;SDS011;49288;52.194;5.676;2023-02-28T04:11:36;32.10;;;11.18;;
40541;SDS011;49288;52.194;5.676;2023-02-28T04:16:42;21.50;;;10.90;;
40541;SDS011;49288;52.194;5.676;2023-02-28T04:21:46;20.98;;;10.40;;
40541;SDS011;49288;52.194;5.676;2023-02-28T04:26:51;20.10;;;10.18;;
40541;SDS011;49288;52.194;5.676;2023-02-28T04:36:59;20.25;;;8.35;;
40541;SDS011;49288;52.194;5.676;2023-02-28T04:42:18;18.90;;;7.75;;
40541;SDS011;49288;52.194;5.676;2023-02-28T04:47:20;16.00;;;7.05;;
40541;SDS011;49288;52.194;5.676;2023-02-28T04:52:23;16.67;;;7.03;;
40541;SDS011;49288;52.194;5.676;2023-02-28T04:57:27;15.80;;;7.78;;
40541;SDS011;49288;52.194;5.676;2023-02-28T05:02:30;15.90;;;6.95;;
40541;SDS011;49288;52.194;5.676;2023-02-28T05:07:33;16.10;;;6.90;;
40541;SDS011;49288;52.194;5.676;2023-02-28T05:12:35;11.13;;;5.63;;
40541;SDS011;49288;52.194;5.676;2023-02-28T05:17:38;12.32;;;7.15;;
40541;SDS011;49288;52.194;5.676;2023-02-28T05:22:41;13.93;;;7.30;;
40541;SDS011;49288;52.194;5.676;2023-02-28T05:27:44;14.48;;;6.68;;
40541;SDS011;49288;52.194;5.676;2023-02-28T05:32:49;12.52;;;6.43;;
40541;SDS011;49288;52.194;5.676;2023-02-28T05:37:53;17.30;;;6.95;;
40541;SDS011;49288;52.194;5.676;2023-02-28T05:42:55;13.43;;;7.47;;
40541;SDS011;49288;52.194;5.676;2023-02-28T05:47:58;14.85;;;6.72;;
40541;SDS011;49288;52.194;5.676;2023-02-28T05:53:01;13.52;;;6.65;;
40541;SDS011;49288;52.194;5.676;2023-02-28T05:58:04;17.75;;;7.63;;
40541;SDS011;49288;52.194;5.676;2023-02-28T06:03:06;14.82;;;7.53;;
40541;SDS011;49288;52.194;5.676;2023-02-28T06:08:09;15.23;;;7.22;;
40541;SDS011;49288;52.194;5.676;2023-02-28T06:13:12;16.98;;;7.38;;
40541;SDS011;49288;52.194;5.676;2023-02-28T06:18:15;15.45;;;7.65;;
40541;SDS011;49288;52.194;5.676;2023-02-28T06:23:18;11.90;;;7.47;;
40541;SDS011;49288;52.194;5.676;2023-02-28T06:28:21;15.40;;;7.33;;
40541;SDS011;49288;52.194;5.676;2023-02-28T06:33:24;16.33;;;6.90;;
40541;SDS011;49288;52.194;5.676;2023-02-28T06:38:27;17.13;;;6.75;;
40541;SDS011;49288;52.194;5.676;2023-02-28T06:43:30;14.57;;;6.68;;
40541;SDS011;49288;52.194;5.676;2023-02-28T06:48:35;16.08;;;7.65;;
40541;SDS011;49288;52.194;5.676;2023-02-28T06:53:37;13.70;;;6.72;;
40541;SDS011;49288;52.194;5.676;2023-02-28T06:58:40;13.93;;;7.75;;
40541;SDS011;49288;52.194;5.676;2023-02-28T07:03:46;16.65;;;7.43;;
40541;SDS011;49288;52.194;5.676;2023-02-28T07:08:54;17.77;;;8.13;;
40541;SDS011;49288;52.194;5.676;2023-02-28T07:13:57;15.88;;;7.95;;
40541;SDS011;49288;52.194;5.676;2023-02-28T07:18:59;13.88;;;7.03;;
40541;SDS011;49288;52.194;5.676;2023-02-28T07:24:03;18.08;;;7.45;;
40541;SDS011;49288;52.194;5.676;2023-02-28T07:29:06;17.23;;;7.70;;
40541;SDS011;49288;52.194;5.676;2023-02-28T07:34:08;16.45;;;7.80;;
40541;SDS011;49288;52.194;5.676;2023-02-28T07:39:11;15.38;;;8.82;;
40541;SDS011;49288;52.194;5.676;2023-02-28T07:44:15;21.65;;;7.32;;
40541;SDS011;49288;52.194;5.676;2023-02-28T07:49:17;19.53;;;9.27;;
40541;SDS011;49288;52.194;5.676;2023-02-28T07:54:20;22.20;;;8.88;;
40541;SDS011;49288;52.194;5.676;2023-02-28T07:59:23;17.38;;;8.90;;
40541;SDS011;49288;52.194;5.676;2023-02-28T08:04:27;24.05;;;10.02;;
40541;SDS011;49288;52.194;5.676;2023-02-28T08:09:31;21.13;;;9.02;;
40541;SDS011;49288;52.194;5.676;2023-02-28T08:14:52;16.75;;;8.40;;
40541;SDS011;49288;52.194;5.676;2023-02-28T08:19:55;18.63;;;8.27;;
40541;SDS011;49288;52.194;5.676;2023-02-28T08:24:58;13.52;;;6.90;;
40541;SDS011;49288;52.194;5.676;2023-02-28T08:30:02;13.32;;;6.95;;
40541;SDS011;49288;52.194;5.676;2023-02-28T08:35:05;15.27;;;7.20;;
40541;SDS011;49288;52.194;5.676;2023-02-28T08:40:09;20.83;;;8.27;;
40541;SDS011;49288;52.194;5.676;2023-02-28T08:45:13;10.48;;;6.00;;
40541;SDS011;49288;52.194;5.676;2023-02-28T08:50:17;9.95;;;5.07;;
40541;SDS011;49288;52.194;5.676;2023-02-28T08:55:21;7.97;;;3.95;;
40541;SDS011;49288;52.194;5.676;2023-02-28T09:00:24;12.18;;;3.55;;
40541;SDS011;49288;52.194;5.676;2023-02-28T09:05:27;7.60;;;4.00;;
40541;SDS011;49288;52.194;5.676;2023-02-28T09:10:31;8.60;;;3.47;;
40541;SDS011;49288;52.194;5.676;2023-02-28T09:15:34;4.95;;;2.80;;
40541;SDS011;49288;52.194;5.676;2023-02-28T09:20:40;4.65;;;2.63;;
40541;SDS011;49288;52.194;5.676;2023-02-28T09:25:47;4.50;;;2.90;;
40541;SDS011;49288;52.194;5.676;2023-02-28T09:30:52;5.15;;;2.65;;
40541;SDS011;49288;52.194;5.676;2023-02-28T09:36:15;5.13;;;2.40;;
40541;SDS011;49288;52.194;5.676;2023-02-28T09:41:19;5.05;;;3.00;;
40541;SDS011;49288;52.194;5.676;2023-02-28T09:46:34;5.60;;;2.88;;
40541;SDS011;49288;52.194;5.676;2023-02-28T09:56:56;8.30;;;3.40;;
40541;SDS011;49288;52.194;5.676;2023-02-28T10:07:17;6.72;;;3.40;;
40541;SDS011;49288;52.194;5.676;2023-02-28T10:12:40;7.68;;;3.67;;
40541;SDS011;49288;52.194;5.676;2023-02-28T10:17:46;6.63;;;3.60;;
40541;SDS011;49288;52.194;5.676;2023-02-28T10:23:10;6.03;;;3.17;;
40541;SDS011;49288;52.194;5.676;2023-02-28T10:28:32;5.75;;;3.10;;
40541;SDS011;49288;52.194;5.676;2023-02-28T10:33:35;6.43;;;3.00;;
40541;SDS011;49288;52.194;5.676;2023-02-28T10:38:38;4.40;;;2.15;;
40541;SDS011;49288;52.194;5.676;2023-02-28T10:43:42;6.20;;;3.20;;
40541;SDS011;49288;52.194;5.676;2023-02-28T10:48:57;18.80;;;3.55;;
40541;SDS011;49288;52.194;5.676;2023-02-28T10:54:05;6.65;;;3.42;;
40541;SDS011;49288;52.194;5.676;2023-02-28T11:14:33;4.47;;;2.72;;
40541;SDS011;49288;52.194;5.676;2023-02-28T11:19:46;6.35;;;3.45;;
40541;SDS011;49288;52.194;5.676;2023-02-28T11:24:52;5.85;;;3.00;;
40541;SDS011;49288;52.194;5.676;2023-02-28T11:29:58;5.30;;;3.20;;
40541;SDS011;49288;52.194;5.676;2023-02-28T11:35:03;6.93;;;3.08;;
40541;SDS011;49288;52.194;5.676;2023-02-28T11:40:14;7.88;;;3.00;;
40541;SDS011;49288;52.194;5.676;2023-02-28T11:45:22;5.53;;;3.40;;
40541;SDS011;49288;52.194;5.676;2023-02-28T12:12:03;5.70;;;3.10;;
40541;SDS011;49288;52.194;5.676;2023-02-28T12:28:37;6.13;;;3.55;;
40541;SDS011;49288;52.194;5.676;2023-02-28T12:33:51;6.60;;;3.78;;
40541;SDS011;49288;52.194;5.676;2023-02-28T12:38:58;5.43;;;3.22;;
40541;SDS011;49288;52.194;5.676;2023-02-28T12:44:05;5.30;;;3.50;;
40541;SDS011;49288;52.194;5.676;2023-02-28T12:49:29;5.75;;;3.00;;
40541;SDS011;49288;52.194;5.676;2023-02-28T12:54:47;8.57;;;3.60;;
40541;SDS011;49288;52.194;5.676;2023-02-28T12:59:59;5.70;;;3.53;;
40541;SDS011;49288;52.194;5.676;2023-02-28T13:10:45;5.43;;;3.50;;
40541;SDS011;49288;52.194;5.676;2023-02-28T13:15:59;5.75;;;3.53;;
40541;SDS011;49288;52.194;5.676;2023-02-28T13:21:04;9.27;;;3.78;;
40541;SDS011;49288;52.194;5.676;2023-02-28T13:26:09;5.65;;;3.67;;
40541;SDS011;49288;52.194;5.676;2023-02-28T13:31:14;6.95;;;4.03;;
40541;SDS011;49288;52.194;5.676;2023-02-28T13:46:37;7.68;;;4.00;;
40541;SDS011;49288;52.194;5.676;2023-02-28T14:07:44;6.97;;;3.92;;
40541;SDS011;49288;52.194;5.676;2023-02-28T14:17:59;7.00;;;3.83;;
40541;SDS011;49288;52.194;5.676;2023-02-28T14:44:42;8.93;;;3.45;;
40541;SDS011;49288;52.194;5.676;2023-02-28T14:49:58;8.73;;;3.70;;
40541;SDS011;49288;52.194;5.676;2023-02-28T14:55:03;5.78;;;3.03;;
40541;SDS011;49288;52.194;5.676;2023-02-28T15:00:22;7.75;;;3.30;;
40541;SDS011;49288;52.194;5.676;2023-02-28T15:05:33;6.82;;;3.53;;
40541;SDS011;49288;52.194;5.676;2023-02-28T15:10:36;6.53;;;3.50;;
40541;SDS011;49288;52.194;5.676;2023-02-28T15:21:06;4.30;;;2.95;;
40541;SDS011;49288;52.194;5.676;2023-02-28T15:26:15;7.45;;;3.17;;
40541;SDS011;49288;52.194;5.676;2023-02-28T15:31:29;6.20;;;3.45;;
40541;SDS011;49288;52.194;5.676;2023-02-28T15:36:54;6.50;;;3.50;;
40541;SDS011;49288;52.194;5.676;2023-02-28T15:42:16;6.40;;;3.80;;
40541;SDS011;49288;52.194;5.676;2023-02-28T15:47:25;7.22;;;3.55;;
40541;SDS011;49288;52.194;5.676;2023-02-28T15:52:39;8.32;;;4.18;;
40541;SDS011;49288;52.194;5.676;2023-02-28T15:57:46;5.78;;;3.50;;
40541;SDS011;49288;52.194;5.676;2023-02-28T16:02:52;6.47;;;3.80;;
40541;SDS011;49288;52.194;5.676;2023-02-28T16:07:55;5.57;;;3.63;;
40541;SDS011;49288;52.194;5.676;2023-02-28T16:18:03;5.80;;;3.85;;
40541;SDS011;49288;52.194;5.676;2023-02-28T16:23:06;6.07;;;3.60;;
40541;SDS011;49288;52.194;5.676;2023-02-28T16:28:33;7.03;;;3.80;;
40541;SDS011;49288;52.194;5.676;2023-02-28T16:33:37;7.45;;;3.70;;
40541;SDS011;49288;52.194;5.676;2023-02-28T16:38:39;7.95;;;4.32;;
40541;SDS011;49288;52.194;5.676;2023-02-28T16:43:43;6.80;;;3.92;;
40541;SDS011;49288;52.194;5.676;2023-02-28T16:48:47;6.10;;;3.63;;
40541;SDS011;49288;52.194;5.676;2023-02-28T16:53:53;5.68;;;3.75;;
40541;SDS011;49288;52.194;5.676;2023-02-28T16:58:58;9.82;;;4.10;;
40541;SDS011;49288;52.194;5.676;2023-02-28T17:04:02;7.40;;;3.97;;
40541;SDS011;49288;52.194;5.676;2023-02-28T17:09:05;6.78;;;4.53;;
40541;SDS011;49288;52.194;5.676;2023-02-28T17:14:10;7.15;;;4.93;;
40541;SDS011;49288;52.194;5.676;2023-02-28T17:19:14;6.93;;;4.10;;
40541;SDS011;49288;52.194;5.676;2023-02-28T17:24:17;8.85;;;4.90;;
40541;SDS011;49288;52.194;5.676;2023-02-28T17:29:31;8.17;;;4.70;;
40541;SDS011;49288;52.194;5.676;2023-02-28T17:34:34;7.63;;;4.53;;
40541;SDS011;49288;52.194;5.676;2023-02-28T17:39:37;10.23;;;5.03;;
40541;SDS011;49288;52.194;5.676;2023-02-28T17:44:39;8.07;;;4.63;;
40541;SDS011;49288;52.194;5.676;2023-02-28T17:49:42;8.80;;;4.70;;
40541;SDS011;49288;52.194;5.676;2023-02-28T17:54:45;9.55;;;4.88;;
40541;SDS011;49288;52.194;5.676;2023-02-28T17:59:47;9.45;;;4.88;;
40541;SDS011;49288;52.194;5.676;2023-02-28T18:04:50;8.57;;;4.70;;
40541;SDS011;49288;52.194;5.676;2023-02-28T18:09:53;8.27;;;4.15;;
40541;SDS011;49288;52.194;5.676;2023-02-28T18:14:55;8.80;;;4.78;;
40541;SDS011;49288;52.194;5.676;2023-02-28T18:19:58;14.73;;;4.43;;
40541;SDS011;49288;52.194;5.676;2023-02-28T18:25:04;9.10;;;5.10;;
40541;SDS011;49288;52.194;5.676;2023-02-28T18:30:10;12.02;;;5.00;;
40541;SDS011;49288;52.194;5.676;2023-02-28T18:35:13;11.40;;;4.95;;
40541;SDS011;49288;52.194;5.676;2023-02-28T18:40:15;9.23;;;5.00;;
40541;SDS011;49288;52.194;5.676;2023-02-28T18:45:18;9.45;;;4.93;;
40541;SDS011;49288;52.194;5.676;2023-02-28T18:50:21;9.02;;;4.50;;
40541;SDS011;49288;52.194;5.676;2023-02-28T18:55:23;8.07;;;4.65;;
40541;SDS011;49288;52.194;5.676;2023-02-28T19:00:29;12.15;;;5.50;;
40541;SDS011;49288;52.194;5.676;2023-02-28T19:05:32;10.07;;;4.93;;
40541;SDS011;49288;52.194;5.676;2023-02-28T19:10:37;8.70;;;4.72;;
40541;SDS011;49288;52.194;5.676;2023-02-28T19:15:41;10.13;;;4.95;;
40541;SDS011;49288;52.194;5.676;2023-02-28T19:20:44;8.68;;;4.80;;
40541;SDS011;49288;52.194;5.676;2023-02-28T19:25:47;7.93;;;4.27;;
40541;SDS011;49288;52.194;5.676;2023-02-28T19:30:50;10.18;;;4.90;;
40541;SDS011;49288;52.194;5.676;2023-02-28T19:35:53;9.13;;;4.60;;
40541;SDS011;49288;52.194;5.676;2023-02-28T19:41:01;9.50;;;5.25;;
40541;SDS011;49288;52.194;5.676;2023-02-28T19:46:06;9.88;;;4.85;;
40541;SDS011;49288;52.194;5.676;2023-02-28T19:56:14;10.17;;;5.60;;
40541;SDS011;49288;52.194;5.676;2023-02-28T20:01:17;9.73;;;4.93;;
40541;SDS011;49288;52.194;5.676;2023-02-28T20:06:20;11.05;;;6.13;;
40541;SDS011;49288;52.194;5.676;2023-02-28T20:11:23;10.23;;;4.97;;
40541;SDS011;49288;52.194;5.676;2023-02-28T20:16:26;11.10;;;5.63;;
40541;SDS011;49288;52.194;5.676;2023-02-28T20:21:32;11.30;;;5.50;;
40541;SDS011;49288;52.194;5.676;2023-02-28T20:26:34;11.82;;;5.75;;
40541;SDS011;49288;52.194;5.676;2023-02-28T20:31:38;11.07;;;5.85;;
40541;SDS011;49288;52.194;5.676;2023-02-28T20:36:40;12.35;;;6.18;;
40541;SDS011;49288;52.194;5.676;2023-02-28T20:41:43;12.15;;;5.47;;
40541;SDS011;49288;52.194;5.676;2023-02-28T20:46:45;11.00;;;5.93;;
40541;SDS011;49288;52.194;5.676;2023-02-28T20:51:48;9.55;;;5.18;;
40541;SDS011;49288;52.194;5.676;2023-02-28T20:56:51;10.93;;;5.65;;
40541;SDS011;49288;52.194;5.676;2023-02-28T21:01:54;13.85;;;6.75;;
40541;SDS011;49288;52.194;5.676;2023-02-28T21:06:57;12.55;;;5.72;;
40541;SDS011;49288;52.194;5.676;2023-02-28T21:12:18;13.40;;;5.60;;
40541;SDS011;49288;52.194;5.676;2023-02-28T21:17:21;10.07;;;5.50;;
40541;SDS011;49288;52.194;5.676;2023-02-28T21:22:25;9.60;;;5.25;;
40541;SDS011;49288;52.194;5.676;2023-02-28T21:27:27;12.30;;;5.77;;
40541;SDS011;49288;52.194;5.676;2023-02-28T21:32:30;9.88;;;4.97;;
40541;SDS011;49288;52.194;5.676;2023-02-28T21:37:35;9.07;;;4.53;;
40541;SDS011;49288;52.194;5.676;2023-02-28T21:42:39;10.35;;;5.45;;
40541;SDS011;49288;52.194;5.676;2023-02-28T21:47:41;15.32;;;6.03;;
40541;SDS011;49288;52.194;5.676;2023-02-28T21:52:44;13.55;;;6.00;;
40541;SDS011;49288;52.194;5.676;2023-02-28T21:57:49;11.60;;;5.68;;
40541;SDS011;49288;52.194;5.676;2023-02-28T22:02:53;15.18;;;6.18;;
40541;SDS011;49288;52.194;5.676;2023-02-28T22:07:58;9.32;;;4.60;;
40541;SDS011;49288;52.194;5.676;2023-02-28T22:13:01;13.10;;;6.30;;
40541;SDS011;49288;52.194;5.676;2023-02-28T22:18:04;17.70;;;6.60;;
40541;SDS011;49288;52.194;5.676;2023-02-28T22:23:07;8.93;;;4.93;;
40541;SDS011;49288;52.194;5.676;2023-02-28T22:28:10;13.70;;;5.78;;
40541;SDS011;49288;52.194;5.676;2023-02-28T22:33:12;15.07;;;6.00;;
40541;SDS011;49288;52.194;5.676;2023-02-28T22:38:15;11.10;;;5.72;;
40541;SDS011;49288;52.194;5.676;2023-02-28T22:43:18;12.05;;;6.22;;
40541;SDS011;49288;52.194;5.676;2023-02-28T22:48:21;15.70;;;5.97;;
40541;SDS011;49288;52.194;5.676;2023-02-28T22:53:24;15.82;;;6.53;;
40541;SDS011;49288;52.194;5.676;2023-02-28T22:58:28;13.63;;;6.82;;
40541;SDS011;49288;52.194;5.676;2023-02-28T23:03:31;15.05;;;6.97;;
40541;SDS011;49288;52.194;5.676;2023-02-28T23:08:33;16.88;;;6.60;;
40541;SDS011;49288;52.194;5.676;2023-02-28T23:13:36;13.63;;;6.65;;
40541;SDS011;49288;52.194;5.676;2023-02-28T23:18:39;16.65;;;7.10;;
40541;SDS011;49288;52.194;5.676;2023-02-28T23:23:41;20.50;;;7.57;;
40541;SDS011;49288;52.194;5.676;2023-02-28T23:28:45;13.38;;;7.22;;
40541;SDS011;49288;52.194;5.676;2023-02-28T23:33:48;15.55;;;7.43;;
40541;SDS011;49288;52.194;5.676;2023-02-28T23:38:52;11.70;;;6.43;;
40541;SDS011;49288;52.194;5.676;2023-02-28T23:43:55;15.77;;;6.70;;
40541;SDS011;49288;52.194;5.676;2023-02-28T23:48:58;14.93;;;6.65;;
40541;SDS011;49288;52.194;5.676;2023-02-28T23:54:02;17.20;;;7.00;;
40541;SDS011;49288;52.194;5.676;2023-02-28T23:59:05;12.82;;;6.40;;
